In Rescue
 
Open Full Screen Window  High Contrast Mode
Wind Gusting 00 knots
05
September 19, 2019 1:59 PM CDT
Weather Information
Wind Direction
  140 °
Wind Speed
  05 kt (6 mph)
Wind Gust
  00 kt (0 mph)
Altimeter
30.02 in
Visibility
10 SM
Temperature
26° C
79° F
Dewpoint
16° C
61° F
Humidity
54%
1hr Rain Fall
00.00 in.
24hr Rain Fall
00.00 in.
Sky Condition
Scattered @ 4,100 ft
VFR

METAR KDVP 191859Z AUTO 14005KT 10SM SCT041 26/16 A3002 RMK AO2 T02590156

FAA Disclaimer: The data displayed is for advisory purposes only and is not to be used for flight planning or operations.